KAFN/AFN METAR and TAF weather

Enter ICAO airport designator
Station Type Date Time Source
KAFN METAR 2019/10/18 06:52 UTC NOAA

KAFN 180652Z AUTO 30008KT 10SM OVC028 08/03 A2951 RMK AO2 SLP000 T00780033 $


Station Type Date Time Source
KAFN Decoded METAR 2019/10/18 06:52 UTC NOAA

JAFFREY MUNI-SILVER RANCH, NH, United States (KAFN) 42-48N 72-00W 313M
Oct 18, 2019 - 02:52 AM EDT / 2019.10.18 0652 UTC
Wind: from the WNW (300 degrees) at 9 MPH (8 KT):0
Visibility: 10 mile(s):0
Sky conditions: overcast
Temperature: 46.0 F (7.8 C)
Dew Point: 37.9 F (3.3 C)
Relative Humidity: 73%
Pressure (altimeter): 29.51 in. Hg (999 hPa)
ob: KAFN 180652Z AUTO 30008KT 10SM OVC028 08/03 A2951 RMK AO2 SLP000 T00780033
cycle: 7

Station Type Date Time Source
KAFN TAF UTC NOAA

Error!

Example: see airport list